Time;durP1;ratioP1;P1;durP2;ratioP2;P2;SDS_P1;SDS_P2;PMS_P1;PMS_P2;Temp;Humidity;BMP_temperature;BMP_pressure;BME280_temperature;BME280_humidity;BME280_pressure;Samples;Min_cycle;Max_cycle;Signal;HPM_P1;HPM_P2
2023/06/03 00:00:22;;;;;;;3.40;1.30;;;8.80;91.30;;;;;;5044402;28;20223;-75
2023/06/03 00:02:52;;;;;;;2.50;1.50;;;8.80;91.60;;;;;;5036941;28;20729;-75
2023/06/03 00:05:21;;;;;;;2.50;1.40;;;8.70;91.70;;;;;;5035233;28;20228;-75
2023/06/03 00:07:48;;;;;;;3.03;1.80;;;8.70;91.90;;;;;;5041255;28;20230;-75
2023/06/03 00:10:15;;;;;;;3.27;1.70;;;8.60;91.90;;;;;;5041503;28;20236;-75
2023/06/03 00:12:42;;;;;;;3.60;1.57;;;8.60;92.10;;;;;;5042925;28;20259;-75
2023/06/03 00:15:09;;;;;;;2.13;1.63;;;8.50;92.30;;;;;;5058822;28;20220;-75
2023/06/03 00:17:35;;;;;;;2.53;1.50;;;8.50;92.50;;;;;;5043484;28;20253;-75
2023/06/03 00:20:06;;;;;;;2.87;1.33;;;8.50;92.70;;;;;;5042267;28;20228;-75
2023/06/03 00:22:35;;;;;;;1.70;1.30;;;8.40;92.90;;;;;;5041408;28;20238;-75
2023/06/03 00:25:01;;;;;;;2.30;1.30;;;8.40;93.30;;;;;;5040309;28;20852;-75
2023/06/03 00:27:28;;;;;;;2.17;1.30;;;8.30;93.40;;;;;;5044996;28;20226;-75
2023/06/03 00:29:54;;;;;;;3.03;1.20;;;8.30;93.70;;;;;;5049379;28;20227;-75
2023/06/03 00:32:21;;;;;;;1.77;1.27;;;8.20;93.90;;;;;;5041278;28;20255;-75
2023/06/03 00:34:48;;;;;;;3.30;1.37;;;8.20;94.10;;;;;;5043814;28;20729;-75
2023/06/03 00:37:14;;;;;;;2.87;1.40;;;8.10;94.20;;;;;;5029383;28;20613;-75
2023/06/03 00:39:42;;;;;;;1.70;1.00;;;8.10;94.50;;;;;;5044937;28;20608;-75
2023/06/03 00:42:09;;;;;;;2.00;1.27;;;8.10;94.90;;;;;;5040078;28;20247;-75
2023/06/03 00:44:36;;;;;;;3.50;1.33;;;8.10;95.00;;;;;;5044573;28;20230;-75
2023/06/03 00:47:05;;;;;;;1.80;1.23;;;8.00;95.10;;;;;;5041186;28;20239;-75
2023/06/03 00:49:33;;;;;;;2.60;1.57;;;8.00;95.20;;;;;;5035544;28;20782;-76
2023/06/03 00:52:02;;;;;;;5.90;1.70;;;8.00;95.30;;;;;;5043668;28;20648;-76
2023/06/03 00:54:29;;;;;;;2.50;1.40;;;7.90;95.40;;;;;;5031595;28;20224;-75
2023/06/03 00:56:58;;;;;;;1.43;1.30;;;7.90;95.60;;;;;;5033324;28;20818;-75
2023/06/03 00:59:25;;;;;;;1.70;1.20;;;7.90;95.90;;;;;;5039320;28;20332;-75
2023/06/03 01:01:51;;;;;;;2.03;1.30;;;7.90;95.90;;;;;;5040919;28;20227;-75
2023/06/03 01:04:25;;;;;;;3.57;1.83;;;7.90;96.10;;;;;;5037795;28;20285;-76
2023/06/03 01:07:16;;;;;;;1.27;1.13;;;7.80;96.40;;;;;;5042175;28;20310;-76
2023/06/03 01:10:02;;;;;;;1.73;1.10;;;7.80;96.90;;;;;;5024219;28;20857;-75
2023/06/03 01:12:35;;;;;;;2.33;1.40;;;7.70;96.90;;;;;;5038307;28;20242;-75
2023/06/03 01:15:08;;;;;;;3.20;1.47;;;7.70;96.60;;;;;;5035700;28;20238;-76
2023/06/03 01:17:39;;;;;;;3.27;1.40;;;7.70;96.50;;;;;;5039216;28;20232;-76
2023/06/03 01:20:09;;;;;;;2.00;1.30;;;7.60;96.80;;;;;;5035781;28;20234;-76
2023/06/03 01:22:41;;;;;;;3.40;1.30;;;7.60;96.90;;;;;;5037505;28;20218;-75
2023/06/03 01:25:11;;;;;;;2.40;1.17;;;7.60;97.20;;;;;;5054327;28;20220;-75
2023/06/03 01:27:39;;;;;;;3.60;1.50;;;7.50;97.30;;;;;;5038649;28;20220;-75
2023/06/03 01:30:09;;;;;;;2.43;1.33;;;7.50;97.40;;;;;;5039139;28;20223;-75
2023/06/03 01:32:37;;;;;;;3.60;1.50;;;7.50;97.50;;;;;;5036776;28;20591;-75
2023/06/03 01:35:06;;;;;;;3.47;1.63;;;7.40;97.50;;;;;;5034551;28;20226;-75
2023/06/03 01:37:35;;;;;;;3.50;1.53;;;7.40;97.80;;;;;;5036964;28;20234;-75
2023/06/03 01:40:04;;;;;;;1.77;1.47;;;7.40;97.80;;;;;;5031167;28;20625;-75
2023/06/03 01:42:35;;;;;;;2.20;1.50;;;7.40;97.90;;;;;;5052230;28;20232;-75
2023/06/03 01:45:04;;;;;;;3.43;1.30;;;7.30;98.20;;;;;;5033001;28;20223;-76
2023/06/03 01:47:31;;;;;;;3.17;1.30;;;7.30;98.60;;;;;;5034055;28;20698;-76
2023/06/03 01:49:58;;;;;;;3.87;1.30;;;7.30;98.70;;;;;;5039102;28;20227;-75
2023/06/03 01:52:26;;;;;;;3.60;1.40;;;7.20;98.40;;;;;;5036502;28;20788;-75
2023/06/03 01:54:53;;;;;;;1.53;1.20;;;7.20;98.40;;;;;;5043556;28;20254;-75
2023/06/03 01:57:20;;;;;;;3.13;1.67;;;7.20;98.70;;;;;;5042215;28;20839;-75
2023/06/03 01:59:48;;;;;;;2.80;1.57;;;7.10;99.00;;;;;;5035628;28;20221;-75
2023/06/03 02:02:15;;;;;;;1.77;1.23;;;7.10;98.90;;;;;;5041665;28;20692;-76
2023/06/03 02:04:45;;;;;;;2.00;1.30;;;7.10;99.00;;;;;;5038575;28;20932;-76
2023/06/03 02:07:13;;;;;;;2.40;1.63;;;7.00;99.20;;;;;;5042736;28;20239;-75
2023/06/03 02:09:41;;;;;;;2.90;1.47;;;7.00;99.40;;;;;;5041878;28;20783;-76
2023/06/03 02:12:09;;;;;;;3.13;1.37;;;6.90;99.30;;;;;;5039165;28;20285;-75
2023/06/03 02:14:37;;;;;;;3.63;1.40;;;6.90;99.60;;;;;;5032679;28;20231;-75
2023/06/03 02:17:07;;;;;;;2.40;1.37;;;6.90;99.80;;;;;;5033978;28;20651;-76
2023/06/03 02:19:34;;;;;;;3.00;1.50;;;6.80;99.80;;;;;;5038746;28;20287;-75
2023/06/03 02:22:01;;;;;;;2.83;1.70;;;6.80;99.40;;;;;;5038248;28;20227;-75
2023/06/03 02:24:31;;;;;;;3.43;1.53;;;6.80;99.50;;;;;;5036613;28;20760;-76
2023/06/03 02:27:01;;;;;;;2.13;1.50;;;6.70;99.70;;;;;;5031292;28;20885;-75
2023/06/03 02:29:29;;;;;;;3.10;1.40;;;6.70;99.90;;;;;;5029813;28;20235;-75
2023/06/03 02:31:58;;;;;;;2.77;1.60;;;6.60;99.90;;;;;;5034433;28;20227;-75
2023/06/03 02:34:27;;;;;;;2.20;1.23;;;6.60;99.90;;;;;;5036611;28;20232;-75
2023/06/03 02:36:54;;;;;;;2.10;1.27;;;6.60;99.90;;;;;;5039722;28;20404;-75
2023/06/03 02:39:22;;;;;;;1.63;1.20;;;6.50;99.90;;;;;;5040890;28;20224;-75
2023/06/03 02:41:50;;;;;;;2.30;1.67;;;6.50;99.90;;;;;;5036593;28;20900;-75
2023/06/03 02:44:17;;;;;;;2.70;1.50;;;6.50;99.90;;;;;;5057453;28;20916;-75
2023/06/03 02:46:45;;;;;;;2.13;1.50;;;6.40;99.90;;;;;;5039772;28;20245;-75
2023/06/03 02:49:14;;;;;;;1.83;1.63;;;6.40;99.90;;;;;;5055478;28;20222;-75
2023/06/03 02:51:42;;;;;;;3.57;1.63;;;6.40;99.90;;;;;;5038040;28;20239;-74
2023/06/03 02:54:09;;;;;;;2.27;1.40;;;6.30;99.90;;;;;;5041163;28;20238;-75
2023/06/03 02:56:35;;;;;;;1.90;1.40;;;6.30;99.90;;;;;;5041869;28;20223;-74
2023/06/03 02:59:03;;;;;;;3.97;1.67;;;6.20;99.90;;;;;;5037485;28;20228;-74
2023/06/03 03:01:31;;;;;;;2.77;1.47;;;6.20;99.90;;;;;;5042027;28;20281;-75
2023/06/03 03:03:58;;;;;;;2.90;1.80;;;6.20;99.90;;;;;;5038805;28;20223;-74
2023/06/03 03:06:25;;;;;;;2.20;1.50;;;6.20;99.90;;;;;;5035307;28;20228;-75
2023/06/03 03:08:57;;;;;;;1.80;1.30;;;6.10;99.90;;;;;;5040955;28;20230;-75
2023/06/03 03:11:27;;;;;;;2.43;1.70;;;6.10;99.90;;;;;;5053408;28;20231;-75
2023/06/03 03:13:54;;;;;;;2.70;1.50;;;6.10;99.90;;;;;;5061848;28;20223;-75
2023/06/03 03:16:23;;;;;;;1.77;1.27;;;6.10;99.90;;;;;;5037430;28;20719;-75
2023/06/03 03:18:51;;;;;;;1.93;1.40;;;6.00;99.90;;;;;;5044238;28;20638;-76
2023/06/03 03:21:19;;;;;;;3.93;1.70;;;6.00;99.90;;;;;;5041242;28;20801;-77
2023/06/03 03:23:46;;;;;;;2.17;1.47;;;6.00;99.90;;;;;;5044462;28;20285;-75
2023/06/03 03:26:15;;;;;;;4.53;1.63;;;6.00;99.90;;;;;;5040128;28;20330;-75
2023/06/03 03:28:45;;;;;;;2.70;1.77;;;6.00;99.90;;;;;;5032039;28;20227;-75
2023/06/03 03:31:14;;;;;;;2.80;1.60;;;6.00;99.90;;;;;;5043523;28;20219;-76
2023/06/03 03:33:41;;;;;;;2.13;1.60;;;6.00;99.90;;;;;;5038111;28;20789;-75
2023/06/03 03:36:12;;;;;;;2.57;1.50;;;6.00;99.90;;;;;;5051814;28;20227;-74
2023/06/03 03:38:40;;;;;;;2.33;1.20;;;6.00;99.90;;;;;;5037561;28;20219;-75
2023/06/03 03:41:07;;;;;;;2.40;1.40;;;6.00;99.90;;;;;;5058746;28;20231;-75
2023/06/03 03:43:38;;;;;;;3.13;1.50;;;6.00;99.90;;;;;;5060816;28;20927;-75
2023/06/03 03:46:09;;;;;;;5.43;1.73;;;6.10;99.90;;;;;;5038497;28;20222;-75
2023/06/03 03:48:37;;;;;;;1.70;1.40;;;6.00;99.90;;;;;;5043467;28;20231;-75
2023/06/03 03:51:05;;;;;;;2.37;1.43;;;6.00;99.90;;;;;;5052311;28;20815;-76
2023/06/03 03:53:36;;;;;;;2.87;1.40;;;6.00;99.90;;;;;;5040204;28;20231;-76
2023/06/03 03:56:07;;;;;;;3.57;1.70;;;6.00;99.90;;;;;;5036442;28;20915;-75
2023/06/03 03:58:46;;;;;;;2.10;1.50;;;6.00;99.90;;;;;;5043546;28;20224;-75
2023/06/03 04:01:22;;;;;;;1.80;1.20;;;6.10;99.90;;;;;;5039905;28;20235;-75
2023/06/03 04:03:50;;;;;;;4.43;1.80;;;6.10;99.90;;;;;;5044578;28;20693;-75
2023/06/03 04:06:28;;;;;;;2.27;1.43;;;6.10;99.90;;;;;;5039974;28;20642;-76
2023/06/03 04:08:56;;;;;;;2.03;1.67;;;6.10;99.90;;;;;;5036815;28;20224;-77
2023/06/03 04:11:27;;;;;;;3.60;1.70;;;6.10;99.90;;;;;;5043332;28;20258;-78
2023/06/03 04:13:57;;;;;;;2.57;1.43;;;6.10;99.90;;;;;;5042068;28;20586;-77
2023/06/03 04:16:51;;;;;;;4.00;1.77;;;6.10;99.90;;;;;;5039944;28;20295;-77
2023/06/03 04:19:30;;;;;;;1.67;1.37;;;6.20;99.90;;;;;;5055678;28;20231;-77
2023/06/03 04:21:58;;;;;;;3.27;1.30;;;6.20;99.90;;;;;;5034796;28;20238;-78
2023/06/03 04:24:25;;;;;;;2.73;1.37;;;6.20;99.90;;;;;;5039602;28;20644;-78
2023/06/03 04:26:51;;;;;;;4.23;1.67;;;6.30;99.90;;;;;;5038418;28;20226;-78
2023/06/03 04:29:20;;;;;;;2.47;1.53;;;6.40;99.90;;;;;;5040012;28;20224;-78
2023/06/03 04:31:47;;;;;;;3.13;1.60;;;6.40;99.90;;;;;;5035514;28;20243;-78
2023/06/03 04:34:15;;;;;;;3.27;2.00;;;6.50;99.90;;;;;;5055104;28;20223;-78
2023/06/03 04:36:42;;;;;;;1.80;1.50;;;6.50;99.90;;;;;;5038310;28;20306;-78
2023/06/03 04:39:10;;;;;;;2.03;1.40;;;6.60;99.90;;;;;;5053488;28;20222;-77
2023/06/03 04:41:40;;;;;;;2.93;1.50;;;6.60;99.90;;;;;;5037711;28;20224;-78
2023/06/03 04:44:08;;;;;;;4.13;2.87;;;6.70;99.90;;;;;;5038718;28;20232;-78
2023/06/03 04:46:37;;;;;;;3.00;1.90;;;6.80;99.90;;;;;;5039803;28;20226;-82
2023/06/03 04:49:07;;;;;;;1.90;1.53;;;6.80;99.90;;;;;;5040354;28;20303;-79
2023/06/03 04:51:35;;;;;;;3.50;1.73;;;6.90;99.90;;;;;;5041390;28;20703;-83
2023/06/03 04:54:05;;;;;;;2.67;1.43;;;7.00;99.90;;;;;;5042047;28;20234;-79
2023/06/03 04:56:33;;;;;;;3.23;1.67;;;7.10;99.90;;;;;;5038871;28;20318;-77
2023/06/03 04:59:03;;;;;;;2.73;1.93;;;7.20;99.90;;;;;;5038828;28;20225;-78
2023/06/03 05:01:36;;;;;;;2.40;1.67;;;7.30;99.90;;;;;;5037640;28;20235;-80
2023/06/03 05:04:05;;;;;;;2.93;1.50;;;7.40;99.90;;;;;;5037426;28;20223;-80
2023/06/03 05:06:34;;;;;;;3.13;1.90;;;7.50;99.90;;;;;;5039014;28;20892;-79
2023/06/03 05:09:01;;;;;;;3.53;1.50;;;7.60;99.90;;;;;;5045301;28;20868;-79
2023/06/03 05:11:28;;;;;;;2.40;1.50;;;7.80;99.90;;;;;;5032492;28;20226;-82
2023/06/03 05:13:56;;;;;;;5.03;1.73;;;7.90;99.90;;;;;;5042291;28;20246;-82
2023/06/03 05:16:24;;;;;;;1.67;1.50;;;8.00;99.90;;;;;;5043393;28;20236;-83
2023/06/03 05:18:51;;;;;;;3.30;1.63;;;8.10;99.90;;;;;;5042989;28;20227;-80
2023/06/03 05:21:20;;;;;;;1.77;1.50;;;8.20;99.90;;;;;;5041573;28;20730;-80
2023/06/03 05:23:48;;;;;;;2.00;1.30;;;8.30;99.90;;;;;;5033466;28;20240;-83
2023/06/03 05:26:15;;;;;;;1.20;1.03;;;8.40;99.90;;;;;;5036464;28;20222;-82
2023/06/03 05:28:42;;;;;;;2.27;1.20;;;8.40;99.90;;;;;;5056723;28;20311;-82
2023/06/03 05:31:09;;;;;;;1.87;1.37;;;8.50;99.90;;;;;;5046109;28;20593;-81
2023/06/03 05:33:36;;;;;;;2.83;1.27;;;8.60;99.90;;;;;;5047861;28;20825;-82
2023/06/03 05:36:08;;;;;;;2.57;1.30;;;8.60;99.90;;;;;;5046729;28;20223;-81
2023/06/03 05:38:36;;;;;;;2.70;1.40;;;8.70;99.90;;;;;;5047891;28;20227;-81
2023/06/03 05:41:06;;;;;;;2.90;1.13;;;8.80;99.90;;;;;;5047325;28;20232;-82
2023/06/03 05:43:33;;;;;;;1.77;0.90;;;8.90;99.90;;;;;;5047684;28;20223;-80
2023/06/03 05:46:00;;;;;;;2.13;1.00;;;9.00;99.90;;;;;;5047858;28;20285;-83
2023/06/03 05:48:28;;;;;;;6.03;1.33;;;9.10;99.90;;;;;;5047353;28;20813;-80
2023/06/03 05:50:55;;;;;;;1.90;1.20;;;9.10;99.90;;;;;;5047192;28;20236;-79
2023/06/03 05:53:26;;;;;;;2.00;1.10;;;9.20;99.90;;;;;;5044819;28;20561;-83
2023/06/03 05:55:57;;;;;;;1.53;0.93;;;9.20;99.90;;;;;;5044228;28;20234;-82
2023/06/03 05:58:25;;;;;;;2.33;1.10;;;9.30;99.90;;;;;;5062400;28;20220;-82
2023/06/03 06:00:53;;;;;;;1.93;1.13;;;9.40;99.90;;;;;;5041517;28;20219;-84
2023/06/03 06:03:20;;;;;;;1.93;1.00;;;9.50;99.90;;;;;;5035968;28;20310;-81
2023/06/03 06:05:47;;;;;;;1.80;1.17;;;9.60;99.90;;;;;;5047700;28;20223;-80
2023/06/03 06:08:13;;;;;;;2.03;1.07;;;9.60;99.90;;;;;;5046839;28;20224;-80
2023/06/03 06:10:40;;;;;;;1.60;0.90;;;9.70;99.90;;;;;;5060905;28;20232;-80
2023/06/03 06:13:08;;;;;;;2.53;1.30;;;9.80;99.70;;;;;;5062124;28;20221;-80
2023/06/03 06:15:36;;;;;;;2.23;1.10;;;9.90;99.60;;;;;;5047684;28;20231;-80
2023/06/03 06:18:04;;;;;;;2.40;0.90;;;10.00;99.90;;;;;;5046554;28;20216;-80
2023/06/03 06:20:30;;;;;;;2.30;1.00;;;10.10;99.90;;;;;;5049053;28;20585;-80
2023/06/03 06:22:57;;;;;;;3.57;1.03;;;10.10;99.80;;;;;;5046883;28;20230;-80
2023/06/03 06:25:24;;;;;;;2.73;0.80;;;10.20;99.00;;;;;;5047189;28;20286;-80
2023/06/03 06:27:51;;;;;;;3.43;1.00;;;10.30;98.80;;;;;;5048732;28;20250;-81
2023/06/03 06:30:21;;;;;;;2.40;1.00;;;10.50;98.40;;;;;;5041661;28;20293;-80
2023/06/03 06:32:50;;;;;;;4.63;1.27;;;10.70;98.10;;;;;;5039211;28;20226;-81
2023/06/03 06:35:20;;;;;;;2.50;0.90;;;10.90;98.20;;;;;;5045660;28;20738;-82
2023/06/03 06:37:48;;;;;;;2.73;1.00;;;11.20;97.10;;;;;;5047145;28;20221;-80
2023/06/03 06:40:18;;;;;;;2.37;0.90;;;11.40;96.30;;;;;;5049073;28;20280;-84
2023/06/03 06:42:46;;;;;;;4.00;1.00;;;11.60;96.10;;;;;;5051183;28;20249;-80
2023/06/03 06:45:23;;;;;;;1.83;1.20;;;11.80;96.40;;;;;;5050152;28;20357;-80
2023/06/03 06:48:04;;;;;;;3.73;1.00;;;11.90;95.60;;;;;;5050447;28;20218;-80
2023/06/03 06:50:44;;;;;;;2.10;1.00;;;12.10;95.60;;;;;;5048855;28;20303;-81
2023/06/03 06:53:11;;;;;;;2.23;1.07;;;12.20;95.50;;;;;;5048175;28;20250;-80
2023/06/03 06:55:47;;;;;;;1.17;1.03;;;12.30;95.10;;;;;;5051744;28;20250;-80
2023/06/03 06:58:16;;;;;;;1.80;1.00;;;12.50;94.80;;;;;;5064417;28;20215;-81
2023/06/03 07:00:45;;;;;;;2.23;0.70;;;12.70;95.30;;;;;;5045768;28;20233;-81
2023/06/03 07:03:14;;;;;;;3.67;1.10;;;13.00;95.30;;;;;;5044374;28;20230;-81
2023/06/03 07:05:41;;;;;;;3.03;1.00;;;13.50;95.60;;;;;;5050872;28;20310;-80
2023/06/03 07:08:08;;;;;;;1.65;0.90;;;14.30;95.50;;;;;;5050044;28;20289;-80
2023/06/03 07:10:35;;;;;;;1.40;0.77;;;15.10;94.70;;;;;;5050902;28;20227;-83
2023/06/03 07:13:03;;;;;;;1.02;0.75;;;16.00;92.30;;;;;;5049516;28;20224;-82
2023/06/03 07:15:30;;;;;;;1.77;0.70;;;17.00;91.60;;;;;;5050942;28;20243;-80
2023/06/03 07:17:59;;;;;;;2.97;0.95;;;17.80;87.70;;;;;;5066899;28;20216;-81
2023/06/03 07:20:33;;;;;;;0.98;0.60;;;18.60;80.90;;;;;;5040571;28;20216;-80
2023/06/03 07:23:00;;;;;;;0.90;0.80;;;19.30;79.40;;;;;;5050732;28;20320;-89
2023/06/03 07:25:36;;;;;;;3.42;1.02;;;19.90;78.50;;;;;;5048975;28;20698;-81
2023/06/03 07:28:10;;;;;;;1.10;0.70;;;20.50;76.10;;;;;;5063729;28;20258;-82
2023/06/03 07:30:39;;;;;;;1.65;0.80;;;21.10;74.80;;;;;;5050296;28;20220;-80
2023/06/03 07:33:10;;;;;;;1.40;0.63;;;21.60;69.80;;;;;;5043991;28;20225;-80
2023/06/03 07:35:37;;;;;;;1.85;0.80;;;22.20;69.70;;;;;;5056999;28;20240;-80
2023/06/03 07:38:06;;;;;;;1.30;0.70;;;22.60;70.80;;;;;;5043895;28;20588;-81
2023/06/03 07:40:40;;;;;;;0.98;0.88;;;23.10;69.00;;;;;;5048530;28;20293;-80
2023/06/03 07:43:08;;;;;;;4.00;0.80;;;23.60;64.80;;;;;;5044461;28;20779;-83
2023/06/03 07:45:35;;;;;;;1.85;0.60;;;24.10;61.20;;;;;;5048516;28;20239;-86
2023/06/03 07:48:02;;;;;;;2.47;0.80;;;24.40;57.70;;;;;;5046375;28;20246;-83
2023/06/03 07:50:32;;;;;;;2.28;0.80;;;24.60;57.30;;;;;;5049393;28;20223;-80
2023/06/03 07:53:00;;;;;;;2.78;0.90;;;24.70;56.90;;;;;;5045254;28;20225;-82
2023/06/03 07:55:29;;;;;;;2.20;0.68;;;24.80;57.00;;;;;;5048951;28;20224;-81
2023/06/03 07:57:55;;;;;;;1.00;0.63;;;25.00;58.70;;;;;;5048459;28;20224;-81
2023/06/03 08:00:22;;;;;;;1.20;0.65;;;25.20;57.60;;;;;;5049744;28;20702;-80
2023/06/03 08:02:49;;;;;;;1.27;0.73;;;25.50;57.50;;;;;;5044405;28;20235;-83
2023/06/03 08:05:16;;;;;;;1.70;1.00;;;25.80;57.10;;;;;;5049633;28;20224;-82
2023/06/03 08:07:46;;;;;;;3.05;0.80;;;26.10;56.40;;;;;;5051151;28;20854;-82
2023/06/03 08:10:23;;;;;;;3.40;0.70;;;26.50;55.20;;;;;;5047827;28;20755;-81
2023/06/03 08:12:50;;;;;;;1.48;0.80;;;26.90;53.10;;;;;;5047553;28;20224;-80
2023/06/03 08:15:28;;;;;;;1.52;0.80;;;27.30;52.70;;;;;;5048679;28;20220;-81
2023/06/03 08:17:55;;;;;;;1.17;0.85;;;27.50;51.80;;;;;;5050044;28;20305;-80
2023/06/03 08:20:26;;;;;;;2.60;0.88;;;27.70;47.30;;;;;;5049987;28;20381;-81
2023/06/03 08:22:55;;;;;;;1.45;0.80;;;27.90;49.10;;;;;;5046068;28;20250;-81
2023/06/03 08:25:22;;;;;;;1.15;0.60;;;28.00;49.70;;;;;;5050086;28;20251;-83
2023/06/03 08:27:49;;;;;;;2.00;0.70;;;28.10;49.60;;;;;;5050426;28;20230;-82
2023/06/03 08:30:17;;;;;;;2.65;0.80;;;28.20;48.50;;;;;;5048110;28;20220;-84
2023/06/03 08:32:45;;;;;;;1.73;0.85;;;28.40;47.10;;;;;;5047320;28;20231;-80
2023/06/03 08:35:14;;;;;;;2.00;0.77;;;28.70;48.40;;;;;;5049665;28;20228;-81
2023/06/03 08:37:41;;;;;;;3.03;0.65;;;28.90;47.40;;;;;;5045969;28;20242;-83
2023/06/03 08:40:11;;;;;;;0.82;0.65;;;29.00;46.90;;;;;;5048218;28;20223;-80
2023/06/03 08:42:42;;;;;;;1.15;0.63;;;29.10;45.60;;;;;;5048021;28;20227;-80
2023/06/03 08:45:10;;;;;;;2.33;1.17;;;29.20;45.10;;;;;;5048926;28;20613;-81
2023/06/03 08:47:59;;;;;;;2.47;0.70;;;29.10;44.60;;;;;;5047182;28;20240;-81
2023/06/03 08:50:28;;;;;;;1.63;0.60;;;28.90;43.20;;;;;;5044603;28;20224;-80
2023/06/03 08:52:56;;;;;;;1.40;0.70;;;28.70;43.30;;;;;;5049091;28;20228;-80
2023/06/03 08:55:24;;;;;;;2.08;0.60;;;28.60;42.90;;;;;;5046889;28;20228;-81
2023/06/03 08:57:57;;;;;;;2.30;0.70;;;28.50;42.40;;;;;;5048722;28;20686;-81
2023/06/03 09:00:26;;;;;;;1.30;0.85;;;28.40;41.70;;;;;;5046625;28;20224;-83
2023/06/03 09:02:53;;;;;;;1.10;0.77;;;28.20;42.00;;;;;;5047376;28;20236;-80
2023/06/03 09:05:20;;;;;;;9.50;0.95;;;28.20;42.50;;;;;;5048184;28;20231;-81
2023/06/03 09:07:48;;;;;;;3.55;0.88;;;28.30;43.20;;;;;;5048811;28;20227;-83
2023/06/03 09:10:16;;;;;;;1.15;0.55;;;28.40;42.30;;;;;;5046499;28;20228;-81
2023/06/03 09:12:44;;;;;;;0.95;0.63;;;28.70;42.90;;;;;;5044750;28;20231;-81
2023/06/03 09:15:14;;;;;;;0.90;0.50;;;28.90;41.90;;;;;;5041291;28;20223;-81
2023/06/03 09:17:41;;;;;;;0.85;0.70;;;29.10;42.00;;;;;;5046407;28;20219;-83
2023/06/03 09:20:09;;;;;;;1.52;0.60;;;29.20;41.20;;;;;;5047861;28;20231;-82
2023/06/03 09:22:36;;;;;;;1.15;0.68;;;29.30;41.30;;;;;;5048266;28;20239;-81
2023/06/03 09:25:03;;;;;;;1.25;0.70;;;29.50;40.50;;;;;;5047367;28;20281;-87
2023/06/03 09:27:30;;;;;;;1.67;0.90;;;29.70;40.50;;;;;;5046915;28;20223;-81
2023/06/03 09:29:58;;;;;;;1.63;0.80;;;30.00;40.50;;;;;;5048338;28;20554;-84
2023/06/03 09:32:25;;;;;;;3.05;0.70;;;30.30;40.30;;;;;;5048881;23;20297;-80
2023/06/03 09:34:53;;;;;;;3.00;0.90;;;30.50;40.40;;;;;;5014086;28;20242;-79
2023/06/03 09:37:20;;;;;;;1.02;0.73;;;30.80;39.50;;;;;;5025676;28;20316;-78
2023/06/03 09:39:48;;;;;;;1.00;0.90;;;31.20;39.20;;;;;;5023606;28;20228;-79
2023/06/03 09:42:15;;;;;;;1.10;0.80;;;31.40;38.40;;;;;;5024672;28;20221;-79
2023/06/03 09:44:43;;;;;;;0.70;0.70;;;31.50;37.70;;;;;;4993644;28;20706;-79
2023/06/03 09:47:12;;;;;;;1.33;0.90;;;31.50;37.60;;;;;;5021177;28;20307;-79
2023/06/03 09:49:39;;;;;;;2.58;0.80;;;31.40;37.30;;;;;;5006880;28;20229;-78
2023/06/03 09:52:09;;;;;;;1.38;0.80;;;31.50;38.00;;;;;;5024633;28;20235;-81
2023/06/03 09:54:36;;;;;;;1.83;0.80;;;31.40;35.90;;;;;;5004411;28;20596;-79
2023/06/03 09:57:11;;;;;;;1.13;0.80;;;31.40;35.10;;;;;;5004583;28;20688;-79
2023/06/03 09:59:38;;;;;;;1.20;0.90;;;31.10;35.10;;;;;;5023574;28;20224;-79
2023/06/03 10:02:13;;;;;;;2.85;0.90;;;30.80;35.40;;;;;;5023336;28;20243;-79
2023/06/03 10:04:42;;;;;;;1.88;0.60;;;30.50;35.20;;;;;;5018941;28;20217;-80
2023/06/03 10:07:10;;;;;;;2.35;1.00;;;30.20;35.40;;;;;;5008777;28;20227;-81
2023/06/03 10:09:37;;;;;;;1.85;0.90;;;29.80;34.90;;;;;;5007533;28;20379;-81
2023/06/03 10:12:04;;;;;;;2.15;0.80;;;29.50;35.40;;;;;;5024693;28;20753;-79
2023/06/03 10:14:31;;;;;;;2.53;1.00;;;29.30;36.30;;;;;;5025060;28;20216;-80
2023/06/03 10:17:06;;;;;;;1.35;0.70;;;29.20;36.20;;;;;;5026561;28;20591;-80
2023/06/03 10:19:35;;;;;;;1.65;0.80;;;29.30;36.70;;;;;;5011920;28;20351;-81
2023/06/03 10:22:03;;;;;;;1.58;0.80;;;29.50;36.60;;;;;;5012712;28;20224;-80
2023/06/03 10:24:31;;;;;;;1.73;0.80;;;29.80;36.80;;;;;;5008765;28;20595;-79
2023/06/03 10:26:58;;;;;;;0.80;0.70;;;30.10;35.60;;;;;;5023117;28;20223;-79
2023/06/03 10:29:26;;;;;;;1.42;0.80;;;30.20;35.40;;;;;;5026259;28;20227;-82
2023/06/03 10:31:54;;;;;;;2.63;0.77;;;30.30;35.50;;;;;;5022017;28;21179;-79
2023/06/03 10:34:21;;;;;;;0.77;0.70;;;30.50;34.80;;;;;;5028680;28;20233;-81
2023/06/03 10:36:56;;;;;;;1.15;0.73;;;30.60;35.10;;;;;;5025433;28;20233;-79
2023/06/03 10:39:25;;;;;;;3.10;0.88;;;30.60;34.10;;;;;;5027540;28;20698;-80
2023/06/03 10:41:54;;;;;;;1.13;0.73;;;30.70;35.30;;;;;;5006557;28;20231;-79
2023/06/03 10:44:21;;;;;;;0.95;0.60;;;30.80;34.70;;;;;;5026965;28;20225;-79
2023/06/03 10:46:54;;;;;;;1.60;0.80;;;30.80;34.60;;;;;;5028914;28;20227;-79
2023/06/03 10:49:25;;;;;;;1.13;0.73;;;30.80;33.90;;;;;;5015864;28;20243;-80
2023/06/03 10:52:08;;;;;;;1.25;0.80;;;30.70;34.60;;;;;;5020347;28;20264;-81
2023/06/03 10:54:48;;;;;;;0.98;0.77;;;30.70;34.60;;;;;;5014356;28;20213;-81
2023/06/03 10:57:20;;;;;;;0.85;0.70;;;30.80;34.40;;;;;;5026397;28;20224;-79
2023/06/03 10:59:48;;;;;;;2.05;0.65;;;30.90;34.20;;;;;;5008744;28;20247;-81
2023/06/03 11:02:16;;;;;;;1.13;0.80;;;31.10;33.50;;;;;;4995424;28;20249;-80
2023/06/03 11:04:42;;;;;;;1.00;0.80;;;30.90;33.20;;;;;;5027180;28;20311;-79
2023/06/03 11:07:45;;;;;;;1.65;0.93;;;30.70;33.30;;;;;;5029332;28;20217;-80
2023/06/03 11:10:40;;;;;;;2.55;0.80;;;30.50;33.70;;;;;;5022371;28;20223;-79
2023/06/03 11:13:08;;;;;;;1.45;0.60;;;30.30;33.60;;;;;;5024265;28;20231;-80
2023/06/03 11:15:59;;;;;;;1.45;0.65;;;30.20;33.40;;;;;;5028018;28;20224;-79
2023/06/03 11:18:26;;;;;;;2.47;0.70;;;30.10;33.00;;;;;;5026070;28;20875;-80
2023/06/03 11:20:52;;;;;;;0.90;0.60;;;30.00;33.60;;;;;;5026425;28;20244;-80
2023/06/03 11:23:39;;;;;;;1.02;0.60;;;29.90;33.70;;;;;;5027216;28;20225;-79
2023/06/03 11:26:32;;;;;;;3.22;0.60;;;30.00;33.90;;;;;;5027632;28;20950;-84
2023/06/03 11:28:59;;;;;;;1.00;0.77;;;30.20;33.80;;;;;;5027055;28;20221;-79
2023/06/03 11:31:27;;;;;;;0.65;0.63;;;30.40;33.90;;;;;;5027656;28;20216;-79
2023/06/03 11:34:22;;;;;;;1.70;0.70;;;30.40;33.30;;;;;;5024536;28;20228;-80
2023/06/03 11:36:50;;;;;;;1.10;0.73;;;30.60;33.40;;;;;;5026816;28;20223;-80
2023/06/03 11:39:16;;;;;;;1.48;0.60;;;30.60;32.90;;;;;;5015634;28;20316;-82
2023/06/03 11:42:08;;;;;;;1.20;0.68;;;30.80;32.80;;;;;;5028635;28;20213;-81
2023/06/03 11:44:35;;;;;;;2.25;0.70;;;30.90;32.10;;;;;;5024886;28;20875;-79
2023/06/03 11:47:02;;;;;;;1.05;0.73;;;31.00;33.10;;;;;;5021293;28;20251;-79
2023/06/03 11:49:28;;;;;;;1.05;0.50;;;31.10;33.30;;;;;;5016562;28;20217;-80
2023/06/03 11:52:00;;;;;;;1.00;0.50;;;31.10;32.80;;;;;;5028275;28;20236;-80
2023/06/03 11:54:27;;;;;;;0.88;0.60;;;31.10;32.10;;;;;;5027586;28;20229;-79
2023/06/03 11:56:56;;;;;;;1.23;0.70;;;30.90;30.90;;;;;;5027752;28;20221;-79
2023/06/03 11:59:30;;;;;;;1.58;0.70;;;30.60;31.90;;;;;;5027217;28;20231;-79
2023/06/03 12:01:58;;;;;;;1.98;0.80;;;30.30;31.40;;;;;;4997414;28;20626;-79
2023/06/03 12:04:25;;;;;;;2.03;0.60;;;29.90;32.20;;;;;;5023457;28;20232;-80
2023/06/03 12:06:52;;;;;;;1.13;0.80;;;29.60;32.50;;;;;;5000348;28;20357;-81
2023/06/03 12:09:20;;;;;;;1.58;0.60;;;29.50;32.30;;;;;;5027008;28;20755;-80
2023/06/03 12:11:46;;;;;;;1.33;0.57;;;29.40;32.60;;;;;;5027241;28;20579;-79
2023/06/03 12:14:25;;;;;;;0.75;0.63;;;29.40;32.60;;;;;;5026991;28;20223;-79
2023/06/03 12:16:52;;;;;;;1.10;0.75;;;29.40;32.60;;;;;;4999001;28;20225;-80
2023/06/03 12:19:19;;;;;;;1.52;0.65;;;29.40;32.70;;;;;;5012443;28;20225;-80
2023/06/03 12:21:55;;;;;;;1.98;0.90;;;29.50;32.50;;;;;;5027390;28;20266;-81
2023/06/03 12:24:28;;;;;;;1.23;0.90;;;29.50;32.40;;;;;;5026423;28;20228;-79
2023/06/03 12:26:55;;;;;;;1.45;0.68;;;29.40;32.60;;;;;;5027035;28;20251;-79
2023/06/03 12:29:24;;;;;;;0.88;0.60;;;29.40;32.80;;;;;;5010230;28;20221;-80
2023/06/03 12:32:01;;;;;;;1.20;0.60;;;29.30;31.70;;;;;;4992942;28;20231;-81
2023/06/03 12:34:34;;;;;;;2.88;1.60;;;29.10;31.80;;;;;;5024328;28;20258;-79
2023/06/03 12:37:01;;;;;;;4.43;0.95;;;29.00;32.40;;;;;;5027619;28;20275;-80
2023/06/03 12:39:44;;;;;;;1.50;0.70;;;28.90;33.00;;;;;;5025922;28;20227;-80
2023/06/03 12:42:11;;;;;;;0.70;0.55;;;28.70;31.70;;;;;;4991712;28;20266;-80
2023/06/03 12:44:44;;;;;;;0.93;0.50;;;28.70;32.70;;;;;;5012541;28;20232;-81
2023/06/03 12:47:11;;;;;;;1.02;0.57;;;28.70;32.80;;;;;;5009547;28;20271;-80
2023/06/03 12:49:38;;;;;;;1.48;0.70;;;28.90;33.60;;;;;;5027112;28;20221;-80
2023/06/03 12:52:13;;;;;;;1.00;0.70;;;29.00;33.70;;;;;;5022650;28;20648;-79
2023/06/03 12:54:41;;;;;;;1.23;0.70;;;29.10;32.20;;;;;;5022924;28;20221;-80
2023/06/03 12:57:07;;;;;;;5.75;0.90;;;29.20;32.30;;;;;;5004857;28;20643;-81
2023/06/03 12:59:34;;;;;;;1.00;0.63;;;29.10;33.20;;;;;;5022520;28;20232;-83
2023/06/03 13:02:03;;;;;;;0.50;0.50;;;29.10;32.50;;;;;;5022265;28;20317;-80
2023/06/03 13:04:31;;;;;;;1.35;0.70;;;29.10;33.10;;;;;;5012391;28;20701;-80